Desdemona, Texas
Current Conditions -  °F | °C
As of 2:35 PM on Thursday 29 Jan 2015 (Local Time) from KSEP Reporting Station
Clear Clear  
Wind Chill: 66°   Ceiling: Unl
Heat Index: 66°   Visibility: 10mi
Dew Point: 35°   Wind: 17mph
Humidity: 31%   Direction: 360°N
Pressure: 30.32"   Gusts: 23mph
Location:  32.27°N, 98.55°W
Report Text: KSEP 292035Z AUTO 36015G20KT 10SM CLR 19/02 A3032 RMK AO2 T01900015
Loading
Personal Weather Stations






























Interactive Weather Map New forecast layout! Learn more

10-Day Weather Forecast

Advertisements
Track Severe Weather on mobile